Time;durP1;ratioP1;P1;durP2;ratioP2;P2;SDS_P1;SDS_P2;PMS_P1;PMS_P2;Temp;Humidity;BMP_temperature;BMP_pressure;BME280_temperature;BME280_humidity;BME280_pressure;Samples;Min_cycle;Max_cycle;Signal;HPM_P1;HPM_P2
2021/10/06 00:01:58;;;;;;;9.65;8.63;;;;;;;13.43;81.69;100209.06;1611760;89;21138;-82
2021/10/06 00:04:24;;;;;;;11.65;10.03;;;;;;;13.43;81.74;100209.06;1636670;87;21083;-81
2021/10/06 00:06:50;;;;;;;10.45;8.38;;;;;;;13.42;81.78;100211.42;1638610;87;21110;-82
2021/10/06 00:09:16;;;;;;;10.50;9.40;;;;;;;13.40;81.81;100215.65;1635567;87;21106;-82
2021/10/06 00:11:42;;;;;;;11.22;9.08;;;;;;;13.41;81.84;100222.64;1618259;87;21688;-82
2021/10/06 00:14:09;;;;;;;10.18;7.65;;;;;;;13.42;81.87;100236.87;1618262;88;21075;-82
2021/10/06 00:16:36;;;;;;;9.05;8.10;;;;;;;13.41;81.93;100241.89;1618203;88;21047;-82
2021/10/06 00:19:03;;;;;;;10.65;8.60;;;;;;;13.40;81.94;100239.75;1618191;88;21095;-82
2021/10/06 00:21:29;;;;;;;9.80;8.80;;;;;;;13.39;82.00;100238.09;1618412;88;22091;-81
2021/10/06 00:23:55;;;;;;;9.35;8.30;;;;;;;13.40;82.05;100242.94;1618489;88;21977;-82
2021/10/06 00:26:21;;;;;;;10.58;9.13;;;;;;;13.41;82.05;100253.95;1618274;88;21014;-82
2021/10/06 00:28:47;;;;;;;10.03;7.72;;;;;;;13.42;82.11;100255.11;1618371;88;21034;-82
2021/10/06 00:31:13;;;;;;;13.93;7.90;;;;;;;13.41;82.12;100253.45;1618239;88;21057;-81
2021/10/06 00:33:39;;;;;;;10.28;7.03;;;;;;;13.43;82.12;100259.97;1618722;88;21067;-81
2021/10/06 00:36:05;;;;;;;8.30;7.40;;;;;;;13.43;82.17;100255.95;1645973;87;21195;-81
2021/10/06 00:38:31;;;;;;;8.95;7.55;;;;;;;13.41;82.15;100254.78;1646348;86;21075;-81
2021/10/06 00:40:57;;;;;;;9.00;6.45;;;;;;;13.38;82.19;100254.34;1646179;87;21579;-81
2021/10/06 00:43:23;;;;;;;8.10;6.97;;;;;;;13.36;82.23;100255.05;1592533;90;21490;-82
2021/10/06 00:45:49;;;;;;;7.67;6.87;;;;;;;13.33;82.24;100248.23;1646324;87;21054;-81
2021/10/06 00:48:15;;;;;;;7.15;6.08;;;;;;;13.31;82.22;100243.56;1646341;87;21136;-82
2021/10/06 00:50:42;;;;;;;6.83;6.10;;;;;;;13.33;82.22;100245.56;1652005;85;21094;-83
2021/10/06 00:53:08;;;;;;;8.95;7.12;;;;;;;13.34;82.26;100249.04;1647785;87;21083;-83
2021/10/06 00:55:35;;;;;;;9.50;7.95;;;;;;;13.35;82.26;100259.58;1647961;87;21041;-82
2021/10/06 00:58:01;;;;;;;9.88;8.95;;;;;;;13.36;82.27;100261.75;1648656;87;21093;-82
2021/10/06 01:00:27;;;;;;;10.53;8.55;;;;;;;13.34;82.29;100257.91;1649251;87;21119;-82
2021/10/06 01:02:53;;;;;;;9.65;8.70;;;;;;;13.33;82.33;100261.63;1649084;87;21477;-82
2021/10/06 01:05:19;;;;;;;9.88;8.43;;;;;;;13.33;82.35;100261.63;1648647;87;21025;-82
2021/10/06 01:07:45;;;;;;;8.80;8.00;;;;;;;13.35;82.37;100260.92;1648916;87;21078;-82
2021/10/06 01:10:12;;;;;;;8.25;7.45;;;;;;;13.36;82.37;100262.59;1647980;87;21031;-83
2021/10/06 01:12:38;;;;;;;8.50;7.70;;;;;;;13.36;82.39;100259.91;1623197;87;21782;-82
2021/10/06 01:15:08;;;;;;;11.00;9.95;;;;;;;13.37;82.41;100257.52;1648819;86;20992;-82
2021/10/06 01:17:34;;;;;;;12.30;10.65;;;;;;;13.38;82.44;100259.19;1595575;90;21043;-82
2021/10/06 01:20:00;;;;;;;8.53;7.72;;;;;;;13.36;82.42;100247.85;1615192;88;21062;-82
2021/10/06 01:22:26;;;;;;;8.55;7.70;;;;;;;13.38;82.45;100256.52;1595461;88;21050;-82
2021/10/06 01:24:52;;;;;;;8.25;7.45;;;;;;;13.40;82.44;100257.17;1615140;88;21021;-81
2021/10/06 01:27:18;;;;;;;8.25;7.20;;;;;;;13.40;82.47;100262.53;1595262;90;21039;-81
2021/10/06 01:29:44;;;;;;;9.30;6.05;;;;;;;13.40;82.48;100259.84;1615108;88;21665;-82
2021/10/06 01:32:14;;;;;;;8.30;6.90;;;;;;;13.42;82.49;100261.81;1595111;89;21011;-82
2021/10/06 01:34:41;;;;;;;10.93;6.95;;;;;;;13.41;82.52;100256.12;1645390;87;21042;-81
2021/10/06 01:37:07;;;;;;;8.48;6.50;;;;;;;13.43;82.54;100254.10;1646039;87;21542;-81
2021/10/06 01:39:33;;;;;;;7.60;6.80;;;;;;;13.44;82.55;100255.73;1645546;87;21051;-81
2021/10/06 01:42:00;;;;;;;8.98;7.08;;;;;;;13.44;82.56;100258.95;1645748;87;21058;-82
2021/10/06 01:44:26;;;;;;;11.12;6.60;;;;;;;13.43;82.53;100262.14;1645883;87;21121;-82
2021/10/06 01:46:52;;;;;;;9.18;7.45;;;;;;;13.43;82.56;100267.50;1646097;86;21511;-82
2021/10/06 01:49:18;;;;;;;24.47;15.40;;;;;;;13.42;82.58;100273.87;1645892;87;21866;-82
2021/10/06 01:51:44;;;;;;;27.98;19.80;;;;;;;13.41;82.59;100274.87;1645955;86;21544;-82
2021/10/06 01:54:10;;;;;;;19.65;14.55;;;;;;;13.42;82.59;100273.87;1646514;87;21065;-81
2021/10/06 01:56:36;;;;;;;19.57;13.20;;;;;;;13.40;82.57;100273.75;1646472;86;21041;-82
2021/10/06 01:59:03;;;;;;;13.72;8.50;;;;;;;13.38;82.59;100274.43;1646397;86;21097;-81
2021/10/06 02:01:30;;;;;;;11.08;7.58;;;;;;;13.37;82.61;100276.27;1646565;87;21879;-81
2021/10/06 02:03:56;;;;;;;9.75;6.58;;;;;;;13.38;82.63;100279.78;1646455;87;21026;-82
2021/10/06 02:06:22;;;;;;;7.67;6.87;;;;;;;13.36;82.62;100284.02;1646383;87;21105;-81
2021/10/06 02:08:48;;;;;;;8.55;6.37;;;;;;;13.35;82.63;100279.67;1646522;87;21094;-82
2021/10/06 02:11:14;;;;;;;8.75;7.15;;;;;;;13.37;82.65;100278.95;1646640;87;21050;-82
2021/10/06 02:13:40;;;;;;;8.18;6.95;;;;;;;13.38;82.67;100272.59;1651049;85;21034;-82
2021/10/06 02:16:07;;;;;;;10.32;7.33;;;;;;;13.39;82.68;100273.42;1672840;85;21082;-82
2021/10/06 02:18:33;;;;;;;10.25;7.12;;;;;;;13.38;82.69;100268.56;1667644;86;21010;-82
2021/10/06 02:20:59;;;;;;;15.08;7.40;;;;;;;13.40;82.70;100274.58;1667584;86;21046;-82
2021/10/06 02:23:25;;;;;;;10.50;7.87;;;;;;;13.41;82.73;100274.87;1667654;86;21073;-81
2021/10/06 02:25:51;;;;;;;9.95;8.23;;;;;;;13.42;82.74;100278.39;1667557;85;21109;-82
2021/10/06 02:28:17;;;;;;;9.60;7.97;;;;;;;13.44;82.76;100276.37;1667557;86;21432;-82
2021/10/06 02:30:43;;;;;;;10.65;8.10;;;;;;;13.36;82.75;100274.64;1667655;86;21185;-82
2021/10/06 02:33:09;;;;;;;11.95;8.70;;;;;;;13.33;82.77;100277.70;1657523;85;21510;-81
2021/10/06 02:35:35;;;;;;;11.45;9.93;;;;;;;13.33;82.83;100277.70;1646245;85;21668;-81
2021/10/06 02:38:01;;;;;;;9.53;8.33;;;;;;;13.36;82.87;100282.67;1671164;84;21111;-81
2021/10/06 02:40:27;;;;;;;10.63;8.20;;;;;;;13.37;82.86;100281.63;1694807;84;21525;-81
2021/10/06 02:42:54;;;;;;;16.02;10.78;;;;;;;13.39;82.88;100282.29;1669831;84;21514;-81
2021/10/06 02:45:20;;;;;;;11.85;8.78;;;;;;;13.38;82.89;100276.60;1657165;86;21023;-82
2021/10/06 02:47:46;;;;;;;14.50;8.98;;;;;;;13.37;82.91;100277.61;1652755;86;21082;-81
2021/10/06 02:50:16;;;;;;;12.73;10.38;;;;;;;13.34;82.88;100279.34;1652879;86;21155;-81
2021/10/06 02:52:42;;;;;;;23.42;17.75;;;;;;;13.30;82.93;100276.72;1652340;86;21484;-81
2021/10/06 02:55:08;;;;;;;35.38;25.30;;;;;;;13.29;82.96;100275.08;1652819;86;21022;-81
2021/10/06 02:57:35;;;;;;;33.00;22.00;;;;;;;13.29;82.99;100283.11;1652780;86;21031;-82
2021/10/06 03:00:03;;;;;;;23.67;16.55;;;;;;;13.28;83.00;100285.47;1638619;86;21153;-82
2021/10/06 03:02:29;;;;;;;13.32;10.55;;;;;;;13.29;83.03;100292.48;1619203;88;21171;-82
2021/10/06 03:04:55;;;;;;;12.65;8.60;;;;;;;13.32;83.05;100292.61;1612793;88;21556;-82
2021/10/06 03:07:21;;;;;;;9.75;8.25;;;;;;;13.33;83.06;100294.28;1593474;90;21056;-82
2021/10/06 03:09:47;;;;;;;11.30;9.10;;;;;;;13.30;83.06;100291.45;1593260;90;21056;-82
2021/10/06 03:12:13;;;;;;;12.88;9.45;;;;;;;13.32;83.09;100290.77;1638070;87;21064;-83
2021/10/06 03:14:39;;;;;;;12.73;10.18;;;;;;;13.33;83.13;100293.77;1638333;87;21560;-83
2021/10/06 03:17:06;;;;;;;12.88;9.38;;;;;;;13.32;83.15;100294.78;1640878;86;21037;-83
2021/10/06 03:19:32;;;;;;;12.95;10.25;;;;;;;13.30;83.16;100291.45;1653328;86;21029;-82
2021/10/06 03:21:58;;;;;;;10.55;9.23;;;;;;;13.30;83.15;100292.78;1638322;87;21053;-82
2021/10/06 03:24:24;;;;;;;11.57;9.35;;;;;;;13.28;83.15;100292.16;1659316;86;21127;-83
2021/10/06 03:26:50;;;;;;;9.30;8.38;;;;;;;13.28;83.15;100289.98;1652534;86;21032;-82
2021/10/06 03:29:16;;;;;;;11.68;10.05;;;;;;;13.28;83.17;100296.17;1652242;86;21024;-82
2021/10/06 03:31:42;;;;;;;12.23;9.50;;;;;;;13.28;83.18;100300.20;1652406;86;21027;-82
2021/10/06 03:34:08;;;;;;;13.13;10.82;;;;;;;13.28;83.18;100306.89;1652654;86;20995;-82
2021/10/06 03:36:34;;;;;;;13.28;10.13;;;;;;;13.28;83.21;100308.73;1638158;86;20947;-81
2021/10/06 03:39:00;;;;;;;12.23;9.25;;;;;;;13.27;83.22;100305.22;1622955;88;21112;-82
2021/10/06 03:41:26;;;;;;;16.55;12.45;;;;;;;13.26;83.24;100306.77;1647794;87;21176;-81
2021/10/06 03:43:52;;;;;;;15.20;12.13;;;;;;;13.25;83.25;100309.12;1652746;86;21146;-81
2021/10/06 03:46:18;;;;;;;17.48;12.35;;;;;;;13.23;83.27;100309.30;1655865;85;21573;-81
2021/10/06 03:48:45;;;;;;;13.03;11.63;;;;;;;13.23;83.30;100312.51;1661555;86;21768;-82
2021/10/06 03:51:11;;;;;;;14.68;11.05;;;;;;;13.23;83.31;100317.33;1625186;86;21130;-82
2021/10/06 03:53:38;;;;;;;12.50;11.20;;;;;;;13.22;83.33;100325.06;1652681;86;21027;-82
2021/10/06 03:56:04;;;;;;;14.20;11.25;;;;;;;13.19;83.35;100330.80;1652753;86;21084;-82
2021/10/06 03:58:30;;;;;;;16.70;11.20;;;;;;;13.17;83.35;100327.46;1652784;86;21551;-82
2021/10/06 04:00:57;;;;;;;15.10;11.57;;;;;;;13.15;83.34;100338.89;1652690;86;21537;-81
2021/10/06 04:03:23;;;;;;;13.78;11.75;;;;;;;13.15;83.36;100340.23;1652707;86;21060;-81
2021/10/06 04:05:49;;;;;;;15.85;11.40;;;;;;;13.13;83.39;100345.42;1652718;86;21036;-82
2021/10/06 04:08:17;;;;;;;15.65;10.95;;;;;;;13.09;83.38;100342.29;1652739;86;21082;-82
2021/10/06 04:10:43;;;;;;;13.28;11.18;;;;;;;13.10;83.41;100341.28;1652466;86;21648;-82
2021/10/06 04:13:09;;;;;;;17.87;12.18;;;;;;;13.10;83.43;100351.99;1652693;86;21063;-82
2021/10/06 04:15:35;;;;;;;13.83;12.40;;;;;;;13.09;83.43;100341.45;1661565;86;21155;-82
2021/10/06 04:18:05;;;;;;;15.03;11.90;;;;;;;13.08;83.46;100348.66;1666961;86;21529;-81
2021/10/06 04:20:29;;;;;;;15.43;12.82;;;;;;;13.10;83.48;100351.99;1666763;86;21050;-82
2021/10/06 04:22:55;;;;;;;15.08;12.75;;;;;;;13.10;83.49;100356.01;1666976;86;21034;-82
2021/10/06 04:25:21;;;;;;;16.73;12.95;;;;;;;13.12;83.52;100355.33;1667253;86;21090;-81
2021/10/06 04:27:47;;;;;;;17.62;13.43;;;;;;;13.12;83.55;100368.72;1662778;86;21524;-81
2021/10/06 04:30:13;;;;;;;16.15;13.32;;;;;;;13.10;83.54;100373.92;1660678;86;21103;-82
2021/10/06 04:32:39;;;;;;;18.00;13.62;;;;;;;13.10;83.54;100369.39;1652640;86;21051;-81
2021/10/06 04:35:06;;;;;;;15.90;13.60;;;;;;;13.08;83.58;100372.75;1652905;86;21569;-81
2021/10/06 04:37:32;;;;;;;15.80;14.20;;;;;;;13.09;83.61;100376.27;1652618;86;21032;-81
2021/10/06 04:39:59;;;;;;;18.23;15.05;;;;;;;13.08;83.62;100372.75;1642023;86;21225;-81
2021/10/06 04:42:25;;;;;;;18.65;14.05;;;;;;;13.08;83.64;100376.77;1643692;87;21034;-81
2021/10/06 04:44:50;;;;;;;17.27;14.50;;;;;;;13.08;83.67;100374.59;1641650;87;21065;-82
2021/10/06 04:47:17;;;;;;;17.17;15.13;;;;;;;13.09;83.67;100381.62;1641517;87;21090;-82
2021/10/06 04:49:43;;;;;;;16.37;14.68;;;;;;;13.09;83.70;100390.98;1640536;86;21046;-82
2021/10/06 04:52:09;;;;;;;17.45;14.73;;;;;;;13.08;83.72;100399.52;1639671;87;21164;-82
2021/10/06 04:54:35;;;;;;;17.82;14.33;;;;;;;13.08;83.74;100399.52;1639536;87;21063;-82
2021/10/06 04:57:01;;;;;;;21.37;14.87;;;;;;;13.07;83.75;100390.33;1639675;87;20975;-82
2021/10/06 04:59:27;;;;;;;20.50;16.67;;;;;;;13.06;83.78;100392.17;1639762;87;21019;-81
2021/10/06 05:01:53;;;;;;;20.97;15.08;;;;;;;13.07;83.80;100393.84;1639510;87;21051;-81
2021/10/06 05:04:19;;;;;;;17.92;15.20;;;;;;;13.08;83.83;100393.33;1640174;87;21153;-82
2021/10/06 05:06:44;;;;;;;20.77;15.75;;;;;;;13.09;83.83;100407.89;1640585;86;21015;-81
2021/10/06 05:09:11;;;;;;;19.25;15.70;;;;;;;13.10;83.84;100416.25;1639615;87;21038;-81
2021/10/06 05:11:38;;;;;;;17.42;15.30;;;;;;;13.10;83.85;100424.28;1639661;87;21698;-82
2021/10/06 05:14:04;;;;;;;18.32;14.80;;;;;;;13.11;83.87;100422.44;1639678;86;21083;-82
2021/10/06 05:16:30;;;;;;;18.90;14.28;;;;;;;13.10;83.89;100426.97;1639578;86;21413;-82
2021/10/06 05:18:56;;;;;;;19.82;14.60;;;;;;;13.09;83.90;100425.29;1639539;87;21027;-81
2021/10/06 05:21:22;;;;;;;16.23;13.75;;;;;;;13.07;83.92;100427.31;1639675;87;21067;-81
2021/10/06 05:23:48;;;;;;;21.27;14.87;;;;;;;13.06;83.92;100434.17;1640219;87;21020;-81
2021/10/06 05:26:14;;;;;;;17.37;13.85;;;;;;;13.06;83.94;100437.69;1641519;87;21054;-81
2021/10/06 05:28:40;;;;;;;17.32;13.58;;;;;;;13.04;83.97;100437.05;1641642;87;21124;-81
2021/10/06 05:31:07;;;;;;;17.67;13.85;;;;;;;13.02;83.96;100438.56;1643631;87;21045;-81
2021/10/06 05:33:33;;;;;;;18.02;13.68;;;;;;;13.02;83.99;100445.75;1641682;87;21042;-81
2021/10/06 05:35:59;;;;;;;16.97;14.15;;;;;;;13.03;84.02;100436.72;1642572;87;21515;-81
2021/10/06 05:38:25;;;;;;;18.80;14.73;;;;;;;13.04;84.03;100434.38;1642256;85;21121;-81
2021/10/06 05:40:51;;;;;;;17.70;15.10;;;;;;;13.05;84.06;100438.72;1646383;87;21268;-82
2021/10/06 05:43:17;;;;;;;24.32;19.02;;;;;;;13.07;84.07;100451.41;1646504;85;21067;-81
2021/10/06 05:45:43;;;;;;;35.23;20.82;;;;;;;13.09;84.07;100456.08;1646398;87;21026;-81
2021/10/06 05:48:09;;;;;;;26.65;18.30;;;;;;;13.12;84.09;100450.39;1646288;87;21026;-81
2021/10/06 05:50:35;;;;;;;21.73;15.93;;;;;;;13.15;84.11;100451.86;1646510;87;21802;-81
2021/10/06 05:53:02;;;;;;;30.12;20.52;;;;;;;13.17;84.15;100450.64;1646455;87;21527;-81
2021/10/06 05:55:28;;;;;;;24.32;17.52;;;;;;;13.20;84.17;100455.62;1646629;87;21080;-81
2021/10/06 05:57:54;;;;;;;21.30;17.70;;;;;;;13.24;84.18;100471.65;1646666;87;20954;-81
2021/10/06 06:00:20;;;;;;;22.65;18.50;;;;;;;13.27;84.20;100479.31;1646586;86;21107;-81
2021/10/06 06:02:46;;;;;;;18.27;16.10;;;;;;;13.29;84.19;100482.66;1646789;87;21081;-82
2021/10/06 06:05:15;;;;;;;21.27;15.58;;;;;;;13.33;84.23;100486.62;1646423;85;21179;-81
2021/10/06 06:07:41;;;;;;;17.90;14.80;;;;;;;13.36;84.23;100494.28;1645448;87;21014;-81
2021/10/06 06:10:09;;;;;;;20.20;16.48;;;;;;;13.41;84.25;100493.71;1646490;87;21074;-81
2021/10/06 06:12:35;;;;;;;20.15;16.30;;;;;;;13.44;84.26;100496.84;1646528;87;21540;-81
2021/10/06 06:15:02;;;;;;;21.05;15.68;;;;;;;13.47;84.26;100499.15;1646789;87;21121;-81
2021/10/06 06:17:28;;;;;;;18.35;14.83;;;;;;;13.50;84.28;100496.12;1646743;87;21808;-81
2021/10/06 06:19:54;;;;;;;18.32;15.30;;;;;;;13.54;84.29;100499.27;1646511;86;21053;-82
2021/10/06 06:22:20;;;;;;;17.95;13.65;;;;;;;13.61;84.29;100499.34;1646292;85;21087;-82
2021/10/06 06:24:46;;;;;;;17.30;15.15;;;;;;;13.64;84.28;100510.52;1661051;85;20923;-82
2021/10/06 06:27:12;;;;;;;19.23;14.60;;;;;;;13.67;84.30;100520.86;1650604;85;21058;-82
2021/10/06 06:29:38;;;;;;;17.82;14.10;;;;;;;13.69;84.29;100518.81;1651710;85;21290;-82
2021/10/06 06:32:04;;;;;;;19.37;14.07;;;;;;;13.71;84.31;100525.34;1646097;87;21011;-81
2021/10/06 06:34:30;;;;;;;19.77;14.58;;;;;;;13.72;84.29;100531.03;1645927;86;21103;-81
2021/10/06 06:36:56;;;;;;;17.67;13.80;;;;;;;13.75;84.31;100527.97;1648112;85;21347;-81
2021/10/06 06:39:22;;;;;;;19.37;13.90;;;;;;;13.77;84.32;100529.95;1649413;85;21022;-81
2021/10/06 06:41:50;;;;;;;16.82;13.30;;;;;;;13.80;84.32;100522.86;1647390;87;21051;-82
2021/10/06 06:44:16;;;;;;;16.97;13.28;;;;;;;13.80;84.28;100539.78;1646721;87;21044;-83
2021/10/06 06:46:43;;;;;;;22.98;13.60;;;;;;;13.82;84.29;100534.25;1646055;87;21027;-83
2021/10/06 06:49:09;;;;;;;18.05;12.95;;;;;;;13.84;84.28;100540.23;1645943;87;21127;-83
2021/10/06 06:51:35;;;;;;;17.20;12.78;;;;;;;13.85;84.25;100537.38;1646000;86;21062;-82
2021/10/06 06:54:03;;;;;;;19.55;13.05;;;;;;;13.90;84.25;100544.84;1646234;87;21054;-82
2021/10/06 06:56:30;;;;;;;15.88;13.38;;;;;;;13.91;84.24;100543.84;1646096;85;21054;-82
2021/10/06 06:58:56;;;;;;;22.32;13.05;;;;;;;13.92;84.25;100549.02;1645506;87;21133;-82
2021/10/06 07:01:22;;;;;;;18.55;12.20;;;;;;;13.95;84.26;100550.48;1646518;87;39017;-82
2021/10/06 07:03:48;;;;;;;13.03;11.35;;;;;;;13.96;84.23;100552.16;1646741;87;21038;-82
2021/10/06 07:06:14;;;;;;;13.30;11.80;;;;;;;14.00;84.21;100552.11;1646893;87;21075;-82
2021/10/06 07:08:42;;;;;;;15.78;11.93;;;;;;;14.07;84.19;100557.05;1646876;87;21082;-83
2021/10/06 07:11:08;;;;;;;13.55;11.00;;;;;;;14.13;84.18;100558.96;1648950;86;21072;-82
2021/10/06 07:13:34;;;;;;;12.58;10.30;;;;;;;14.17;84.18;100558.91;1649698;87;21510;-82
2021/10/06 07:16:00;;;;;;;13.90;11.12;;;;;;;14.20;84.13;100563.89;1649604;87;21594;-82
2021/10/06 07:18:29;;;;;;;14.28;10.85;;;;;;;14.25;84.13;100561.45;1649769;87;21751;-82
2021/10/06 07:20:54;;;;;;;10.93;9.55;;;;;;;14.37;84.15;100569.37;1646862;87;21499;-82
2021/10/06 07:23:22;;;;;;;12.43;8.58;;;;;;;14.48;84.13;100574.23;1591507;90;21054;-82
2021/10/06 07:25:48;;;;;;;9.90;8.18;;;;;;;14.57;84.08;100580.30;1590782;90;21044;-82
2021/10/06 07:28:14;;;;;;;11.90;7.80;;;;;;;14.63;84.03;100579.55;1591691;90;21077;-82
2021/10/06 07:30:40;;;;;;;11.28;8.30;;;;;;;14.73;84.01;100577.88;1592777;88;21853;-83
2021/10/06 07:33:06;;;;;;;7.53;6.78;;;;;;;14.80;83.99;100583.64;1610738;87;21478;-82
2021/10/06 07:35:32;;;;;;;9.48;6.72;;;;;;;14.85;83.92;100591.92;1604496;88;21030;-82
2021/10/06 07:37:58;;;;;;;9.75;6.87;;;;;;;14.77;83.89;100576.48;1618526;87;21055;-82
2021/10/06 07:40:24;;;;;;;9.03;6.78;;;;;;;14.85;83.79;100593.78;1626160;86;21116;-82
2021/10/06 07:42:50;;;;;;;13.18;6.40;;;;;;;14.83;83.76;100597.18;1609309;89;21241;-82
2021/10/06 07:45:16;;;;;;;7.47;6.65;;;;;;;14.85;83.71;100599.15;1609094;89;21087;-82
2021/10/06 07:47:42;;;;;;;8.68;6.35;;;;;;;14.89;83.64;100606.63;1610442;88;21073;-82
2021/10/06 07:50:08;;;;;;;24.02;6.20;;;;;;;14.93;83.54;100609.77;1603171;89;21056;-82
2021/10/06 07:52:34;;;;;;;9.70;5.70;;;;;;;14.74;83.48;100576.33;1602372;89;21065;-82
2021/10/06 07:55:00;;;;;;;8.00;5.70;;;;;;;14.98;83.46;100610.03;1597562;89;21612;-83
2021/10/06 07:57:26;;;;;;;6.85;5.60;;;;;;;15.03;83.38;100612.95;1602526;89;21040;-82
2021/10/06 07:59:52;;;;;;;6.25;5.33;;;;;;;15.08;83.30;100615.91;1596359;89;20957;-83
2021/10/06 08:02:19;;;;;;;5.85;4.87;;;;;;;15.12;83.22;100622.55;1605933;88;21490;-83
2021/10/06 08:04:45;;;;;;;8.18;5.30;;;;;;;15.17;83.13;100626.81;1621079;87;21114;-82
2021/10/06 08:07:11;;;;;;;8.85;5.03;;;;;;;15.09;83.03;100618.08;1581735;89;21103;-83
2021/10/06 08:09:37;;;;;;;7.53;6.53;;;;;;;15.09;83.03;100618.08;1581635;90;21032;-82
2021/10/06 08:12:04;;;;;;;7.83;5.90;;;;;;;15.06;82.88;100628.67;1609816;89;21063;-83
2021/10/06 08:14:30;;;;;;;7.80;5.30;;;;;;;15.00;82.77;100629.45;1598404;88;21098;-83
2021/10/06 08:16:56;;;;;;;5.15;4.12;;;;;;;14.98;82.69;100631.01;1596167;89;21107;-83
2021/10/06 08:19:22;;;;;;;7.72;4.45;;;;;;;15.01;82.62;100631.13;1603484;88;21549;-82
2021/10/06 08:21:48;;;;;;;6.97;4.53;;;;;;;14.99;82.55;100627.78;1601156;89;21018;-82
2021/10/06 08:24:14;;;;;;;6.78;4.20;;;;;;;15.00;82.48;100629.45;1585415;89;21121;-82
2021/10/06 08:26:40;;;;;;;9.48;4.75;;;;;;;15.04;82.41;100628.56;1594326;89;21116;-83
2021/10/06 08:29:06;;;;;;;6.10;3.92;;;;;;;15.00;82.29;100637.01;1609896;89;21031;-83
2021/10/06 08:31:32;;;;;;;5.70;4.50;;;;;;;14.94;82.29;100634.27;1583947;90;21186;-84
2021/10/06 08:33:58;;;;;;;6.08;4.50;;;;;;;14.94;82.29;100634.27;1578941;89;21134;-81
2021/10/06 08:36:24;;;;;;;11.95;4.67;;;;;;;15.00;82.09;100630.80;1594408;88;21065;-82
2021/10/06 08:38:50;;;;;;;6.45;4.65;;;;;;;14.93;81.92;100620.51;1593588;89;21104;-83
2021/10/06 08:41:17;;;;;;;5.45;4.25;;;;;;;14.97;81.86;100619.10;1589030;87;21118;-83
2021/10/06 08:43:43;;;;;;;10.82;6.80;;;;;;;15.17;81.80;100638.91;1614132;87;21230;-82
2021/10/06 08:46:09;;;;;;;5.20;4.37;;;;;;;15.13;81.59;100626.87;1618167;87;21066;-82
2021/10/06 08:48:36;;;;;;;5.85;4.50;;;;;;;15.13;81.59;100626.87;1608562;87;21080;-82
2021/10/06 08:51:02;;;;;;;6.22;4.50;;;;;;;15.21;81.47;100637.50;1621320;86;21097;-82
2021/10/06 08:53:29;;;;;;;10.70;5.58;;;;;;;15.13;81.41;100626.87;1618251;87;21055;-82
2021/10/06 08:55:55;;;;;;;6.30;3.90;;;;;;;15.14;81.21;100623.69;1610694;87;21798;-82
2021/10/06 08:58:21;;;;;;;5.92;4.92;;;;;;;15.14;81.21;100623.69;1614558;87;21013;-81
2021/10/06 09:00:56;;;;;;;8.05;4.37;;;;;;;15.29;81.12;100644.59;1615235;87;21049;-81
2021/10/06 09:03:29;;;;;;;5.67;3.92;;;;;;;15.28;80.72;100646.44;1612123;87;21112;-81
2021/10/06 09:06:07;;;;;;;7.15;3.70;;;;;;;15.28;80.72;100646.44;1608881;87;21106;-82
2021/10/06 09:08:36;;;;;;;4.92;3.30;;;;;;;15.31;80.49;100650.08;1611057;87;21752;-82
2021/10/06 09:11:03;;;;;;;3.52;3.02;;;;;;;15.33;80.58;100666.86;1614227;87;21015;-82
2021/10/06 09:13:35;;;;;;;6.03;3.20;;;;;;;15.32;80.50;100670.56;1616018;87;21035;-81
2021/10/06 09:16:01;;;;;;;6.10;3.70;;;;;;;15.38;80.43;100676.50;1624677;87;21060;-84
2021/10/06 09:18:30;;;;;;;4.92;3.27;;;;;;;15.24;80.30;100645.16;1619102;87;21050;-84
2021/10/06 09:20:58;;;;;;;7.15;3.58;;;;;;;15.43;80.32;100682.13;1614693;87;21827;-86
2021/10/06 09:23:25;;;;;;;4.28;2.95;;;;;;;15.44;80.08;100691.87;1609186;87;21119;-86
2021/10/06 09:26:03;;;;;;;6.83;3.05;;;;;;;15.42;79.99;100693.90;1613131;87;21545;-86
2021/10/06 09:28:46;;;;;;;8.30;3.95;;;;;;;15.43;79.89;100695.58;1613150;87;21687;-86
2021/10/06 09:31:21;;;;;;;7.12;3.12;;;;;;;15.47;79.77;100704.08;1619847;87;21515;-86
2021/10/06 09:33:52;;;;;;;4.95;2.70;;;;;;;15.44;79.67;100702.63;1609484;87;21205;-87
2021/10/06 09:36:31;;;;;;;7.65;3.47;;;;;;;15.37;79.54;100708.45;1610380;87;21012;-85
2021/10/06 09:39:02;;;;;;;10.35;4.12;;;;;;;15.42;79.50;100714.06;1602181;87;21087;-86
2021/10/06 09:41:45;;;;;;;5.55;3.50;;;;;;;15.49;79.37;100715.48;1606843;87;21537;-85
2021/10/06 09:44:16;;;;;;;5.87;3.52;;;;;;;15.49;79.25;100719.02;1619436;85;21597;-86
2021/10/06 09:46:48;;;;;;;11.30;4.20;;;;;;;15.48;79.10;100716.00;1619051;87;21152;-86
2021/10/06 09:49:34;;;;;;;4.72;3.00;;;;;;;15.58;79.01;100714.84;1607926;87;21050;-86
2021/10/06 09:52:25;;;;;;;5.75;2.92;;;;;;;15.76;78.94;100721.92;1629906;87;21158;-86
2021/10/06 09:54:58;;;;;;;13.20;4.72;;;;;;;15.97;78.80;100719.18;1612847;87;21108;-84
2021/10/06 09:57:32;;;;;;;5.65;3.20;;;;;;;16.14;78.66;100729.94;1611441;89;21035;-84
2021/10/06 10:00:02;;;;;;;10.03;3.15;;;;;;;16.12;78.44;100734.67;1612161;89;21193;-84
2021/10/06 10:02:29;;;;;;;7.35;2.83;;;;;;;16.12;78.33;100734.67;1611591;88;21548;-83
2021/10/06 10:04:55;;;;;;;6.25;2.95;;;;;;;16.13;78.21;100734.16;1611584;89;21098;-84
2021/10/06 10:07:22;;;;;;;7.70;2.87;;;;;;;16.15;78.10;100743.70;1611820;89;21123;-83
2021/10/06 10:09:49;;;;;;;6.72;2.98;;;;;;;16.11;77.95;100743.80;1611901;89;21038;-83
2021/10/06 10:12:19;;;;;;;3.52;2.65;;;;;;;15.98;77.76;100749.06;1611770;89;21113;-83
2021/10/06 10:14:46;;;;;;;5.97;2.72;;;;;;;15.89;77.57;100754.29;1610954;89;21642;-83
2021/10/06 10:17:12;;;;;;;5.55;2.80;;;;;;;15.85;77.45;100761.08;1613304;87;21099;-83
2021/10/06 10:19:38;;;;;;;12.80;3.35;;;;;;;15.88;77.38;100763.38;1615208;87;21082;-83
2021/10/06 10:22:04;;;;;;;5.70;3.58;;;;;;;15.87;77.25;100771.95;1620054;87;21125;-84
2021/10/06 10:24:30;;;;;;;9.78;3.55;;;;;;;15.92;77.09;100777.59;1612784;89;21092;-82
2021/10/06 10:27:02;;;;;;;8.88;4.45;;;;;;;15.92;76.95;100767.34;1612893;87;21573;-83
2021/10/06 10:29:46;;;;;;;9.58;4.70;;;;;;;15.90;76.86;100770.22;1613019;89;21130;-83
2021/10/06 10:32:20;;;;;;;7.08;3.30;;;;;;;15.94;76.73;100774.69;1612343;89;21099;-83
2021/10/06 10:35:03;;;;;;;6.97;4.47;;;;;;;15.85;76.54;100774.53;1614335;88;21358;-83
2021/10/06 10:37:53;;;;;;;4.22;3.35;;;;;;;15.82;76.48;100770.38;1621321;87;21559;-83
2021/10/06 10:40:42;;;;;;;9.10;2.90;;;;;;;15.86;76.36;100772.17;1639807;85;21058;-84
2021/10/06 10:43:25;;;;;;;5.70;2.75;;;;;;;15.90;76.28;100776.14;1616003;87;21069;-83
2021/10/06 10:46:11;;;;;;;8.48;2.40;;;;;;;16.00;76.21;100780.66;1612326;87;21058;-83
2021/10/06 10:48:54;;;;;;;7.95;2.60;;;;;;;16.00;76.07;100769.90;1625034;87;21030;-83
2021/10/06 10:51:20;;;;;;;5.50;2.45;;;;;;;16.03;75.95;100774.88;1621366;87;21519;-82
2021/10/06 10:53:55;;;;;;;6.25;2.40;;;;;;;16.07;75.85;100770.78;1621842;87;21606;-83
2021/10/06 10:56:44;;;;;;;11.20;2.62;;;;;;;16.13;75.75;100774.53;1617783;87;21540;-83
2021/10/06 10:59:18;;;;;;;;;;;;;;;16.21;75.63;100777.91;1623101;87;21578;-82
2021/10/06 11:01:58;;;;;;;5.20;2.47;;;;;;;16.20;75.44;100783.48;1613003;86;20196;-82
2021/10/06 11:04:29;;;;;;;8.20;3.37;;;;;;;16.23;75.37;100785.77;1614836;87;21041;-82
2021/10/06 11:07:14;;;;;;;7.25;2.58;;;;;;;16.31;75.26;100794.53;1616455;87;21082;-82
2021/10/06 11:09:43;;;;;;;8.15;2.45;;;;;;;16.34;75.16;100793.30;1622358;87;21066;-81
2021/10/06 11:12:21;;;;;;;3.22;2.35;;;;;;;16.38;75.01;100800.80;1614464;87;21050;-82
2021/10/06 11:14:49;;;;;;;6.75;3.60;;;;;;;16.37;74.86;100800.47;1614663;87;21520;-81
2021/10/06 11:17:20;;;;;;;6.67;3.37;;;;;;;16.40;74.79;100797.38;1617687;87;21210;-81
2021/10/06 11:19:56;;;;;;;6.83;3.17;;;;;;;16.47;74.68;100798.24;1613717;87;21476;-81